createdAt,value
2023-01-19T00:01:42.182Z,96.06
2023-01-19T00:04:10.243Z,96.37
2023-01-19T00:06:38.106Z,94.86
2023-01-19T00:09:06.023Z,95.83
2023-01-19T00:11:33.982Z,97.63
2023-01-19T00:14:02.142Z,98.00
2023-01-19T00:16:30.120Z,97.90
2023-01-19T00:18:58.089Z,97.93
2023-01-19T00:21:26.075Z,98.39
2023-01-19T00:23:54.036Z,98.78
2023-01-19T00:26:22.526Z,98.41
2023-01-19T00:28:50.922Z,99.39
2023-01-19T00:31:20.985Z,99.93
2023-01-19T00:33:50.445Z,99.58
2023-01-19T00:36:19.359Z,98.90
2023-01-19T00:38:47.447Z,98.67
2023-01-19T00:41:15.491Z,98.78
2023-01-19T00:43:43.408Z,97.89
2023-01-19T00:46:11.268Z,96.61
2023-01-19T00:48:39.221Z,96.22
2023-01-19T00:51:07.141Z,95.61
2023-01-19T00:53:35.103Z,95.13
2023-01-19T00:56:02.966Z,95.10
2023-01-19T00:58:30.822Z,94.64
2023-01-19T01:01:03.912Z,93.77
2023-01-19T01:03:32.404Z,94.22
2023-01-19T01:06:00.272Z,93.75
2023-01-19T01:08:28.088Z,94.35
2023-01-19T01:10:56.772Z,94.06
2023-01-19T01:13:27.252Z,94.17
2023-01-19T01:15:57.089Z,94.43
2023-01-19T01:18:26.463Z,93.88
2023-01-19T01:21:05.032Z,93.95
2023-01-19T01:23:33.658Z,93.98
2023-01-19T01:26:01.875Z,93.40
2023-01-19T01:28:29.810Z,93.07
2023-01-19T01:30:57.615Z,93.48
2023-01-19T01:33:40.670Z,92.89
2023-01-19T01:36:10.770Z,92.53
2023-01-19T01:38:40.631Z,92.99
2023-01-19T01:41:09.344Z,92.55
2023-01-19T01:43:50.655Z,91.32
2023-01-19T01:46:20.149Z,92.64
2023-01-19T01:49:16.554Z,92.46
2023-01-19T01:51:48.372Z,94.09
2023-01-19T01:54:31.055Z,93.95
2023-01-19T01:57:05.176Z,92.99
2023-01-19T01:59:39.442Z,92.71
2023-01-19T02:02:30.589Z,93.13
2023-01-19T02:05:04.575Z,94.95
2023-01-19T02:08:14.107Z,94.80
2023-01-19T02:11:01.936Z,94.79
2023-01-19T02:13:31.465Z,95.26
2023-01-19T02:16:03.503Z,95.79
2023-01-19T02:18:32.520Z,96.09
2023-01-19T02:21:04.895Z,95.11
2023-01-19T02:23:48.686Z,94.78
2023-01-19T02:26:39.236Z,95.13
2023-01-19T02:29:16.729Z,92.83
2023-01-19T02:31:45.560Z,93.79
2023-01-19T02:34:17.246Z,94.44
2023-01-19T02:36:56.521Z,94.68
2023-01-19T02:39:33.794Z,94.67
2023-01-19T02:42:06.436Z,95.63
2023-01-19T02:44:36.788Z,96.39
2023-01-19T02:47:05.961Z,96.12
2023-01-19T02:49:33.908Z,96.22
2023-01-19T02:52:01.978Z,96.28
2023-01-19T02:55:04.045Z,96.18
2023-01-19T02:57:39.728Z,94.84
2023-01-19T03:00:13.294Z,95.78
2023-01-19T03:03:09.362Z,94.96
2023-01-19T03:05:50.127Z,95.33
2023-01-19T03:08:34.454Z,94.75
2023-01-19T03:11:09.166Z,95.43
2023-01-19T03:13:52.732Z,94.54
2023-01-19T03:16:22.570Z,93.41
2023-01-19T03:19:09.105Z,93.01
2023-01-19T03:21:40.063Z,94.15
2023-01-19T03:24:11.869Z,94.15
2023-01-19T03:26:45.164Z,95.07
2023-01-19T03:29:14.284Z,96.70
2023-01-19T03:31:45.665Z,96.57
2023-01-19T03:34:16.521Z,95.92
2023-01-19T03:36:49.616Z,95.95
2023-01-19T03:39:25.120Z,97.57
2023-01-19T03:41:59.645Z,97.06
2023-01-19T03:44:29.815Z,99.20
2023-01-19T03:46:59.609Z,99.25
2023-01-19T03:49:30.901Z,98.70
2023-01-19T03:51:59.507Z,99.81
2023-01-19T03:54:28.502Z,100.00
2023-01-19T03:56:56.445Z,100.00
2023-01-19T03:59:24.306Z,100.00
2023-01-19T04:01:52.649Z,100.00
2023-01-19T04:04:20.497Z,100.00
2023-01-19T04:06:48.398Z,100.00
2023-01-19T04:09:17.544Z,100.00
2023-01-19T04:11:47.340Z,100.00
2023-01-19T04:14:15.175Z,99.77
2023-01-19T04:16:43.056Z,100.00
2023-01-19T04:19:11.437Z,100.00
2023-01-19T04:21:39.654Z,100.00
2023-01-19T04:24:08.014Z,100.00
2023-01-19T04:26:35.944Z,100.00
2023-01-19T04:29:04.614Z,99.03
2023-01-19T04:31:33.112Z,98.32
2023-01-19T04:34:01.057Z,99.06
2023-01-19T04:36:28.875Z,98.54
2023-01-19T04:38:56.683Z,98.09
2023-01-19T04:41:24.596Z,98.17
2023-01-19T04:43:52.484Z,98.17
2023-01-19T04:46:20.314Z,99.17
2023-01-19T04:48:48.260Z,100.00
2023-01-19T04:51:16.123Z,100.00
2023-01-19T04:53:44.035Z,100.00
2023-01-19T04:56:12.775Z,100.00
2023-01-19T04:58:41.033Z,100.00
2023-01-19T05:01:09.961Z,100.00
2023-01-19T05:03:37.965Z,100.00
2023-01-19T05:06:06.715Z,100.00
2023-01-19T05:08:34.617Z,100.00
2023-01-19T05:11:02.595Z,100.00
2023-01-19T05:13:30.716Z,100.00
2023-01-19T05:15:58.719Z,100.00
2023-01-19T05:18:26.660Z,100.00
2023-01-19T05:20:54.534Z,100.00
2023-01-19T05:23:22.454Z,100.00
2023-01-19T05:25:50.605Z,100.00
2023-01-19T05:28:19.334Z,100.00
2023-01-19T05:30:47.239Z,100.00
2023-01-19T05:33:15.273Z,100.00
2023-01-19T05:35:43.148Z,100.00
2023-01-19T05:38:10.953Z,100.00
2023-01-19T05:40:38.745Z,100.00
2023-01-19T05:43:06.713Z,100.00
2023-01-19T05:45:34.938Z,100.00
2023-01-19T05:48:02.902Z,100.00
2023-01-19T05:50:30.994Z,100.00
2023-01-19T05:53:00.423Z,100.00
2023-01-19T05:55:29.548Z,100.00
2023-01-19T05:57:57.516Z,100.00
2023-01-19T06:00:27.811Z,100.00
2023-01-19T06:02:55.800Z,100.00
2023-01-19T06:05:23.778Z,100.00
2023-01-19T06:07:51.653Z,100.00
2023-01-19T06:10:19.774Z,100.00
2023-01-19T06:12:47.654Z,100.00
2023-01-19T06:15:15.623Z,100.00
2023-01-19T06:17:43.502Z,100.00
2023-01-19T06:20:14.128Z,100.00
2023-01-19T06:22:42.108Z,100.00
2023-01-19T06:25:10.641Z,100.00
2023-01-19T06:27:40.063Z,100.00
2023-01-19T06:30:08.605Z,100.00
2023-01-19T06:32:36.584Z,100.00
2023-01-19T06:35:05.693Z,100.00
2023-01-19T06:37:34.825Z,100.00
2023-01-19T06:40:03.237Z,100.00
2023-01-19T06:42:31.295Z,100.00
2023-01-19T06:44:59.484Z,100.00
2023-01-19T06:47:27.394Z,100.00
2023-01-19T06:49:55.365Z,100.00
2023-01-19T06:52:23.318Z,100.00
2023-01-19T06:54:51.325Z,100.00
2023-01-19T06:57:19.239Z,100.00
2023-01-19T06:59:47.245Z,100.00
2023-01-19T07:02:26.461Z,100.00
2023-01-19T07:04:56.990Z,100.00
2023-01-19T07:07:25.674Z,100.00
2023-01-19T07:09:54.370Z,100.00
2023-01-19T07:12:23.168Z,100.00
2023-01-19T07:14:51.903Z,100.00
2023-01-19T07:17:20.451Z,100.00
2023-01-19T07:19:48.467Z,100.00
2023-01-19T07:22:16.443Z,100.00
2023-01-19T07:24:44.547Z,100.00
2023-01-19T07:27:12.879Z,100.00
2023-01-19T07:29:40.695Z,100.00
2023-01-19T07:32:08.913Z,100.00
2023-01-19T07:34:37.223Z,100.00
2023-01-19T07:37:05.127Z,100.00
2023-01-19T07:39:33.018Z,100.00
2023-01-19T07:42:01.385Z,100.00
2023-01-19T07:44:29.965Z,100.00
2023-01-19T07:46:57.930Z,100.00
2023-01-19T07:49:25.876Z,100.00
2023-01-19T07:51:56.475Z,100.00
2023-01-19T07:54:24.477Z,100.00
2023-01-19T07:56:55.524Z,100.00
2023-01-19T07:59:23.739Z,100.00
2023-01-19T08:01:53.626Z,100.00
2023-01-19T08:04:22.059Z,100.00
2023-01-19T08:06:50.107Z,100.00
2023-01-19T08:09:18.373Z,98.93
2023-01-19T08:11:46.673Z,96.65
2023-01-19T08:14:14.603Z,98.34
2023-01-19T08:16:42.455Z,98.95
2023-01-19T08:19:10.414Z,100.00
2023-01-19T08:21:39.188Z,100.00
2023-01-19T08:24:07.526Z,100.00
2023-01-19T08:26:35.986Z,100.00
2023-01-19T08:29:06.098Z,100.00
2023-01-19T08:31:34.054Z,99.71
2023-01-19T08:34:02.540Z,100.00
2023-01-19T08:36:30.551Z,98.99
2023-01-19T08:38:58.488Z,98.64
2023-01-19T08:41:27.077Z,98.22
2023-01-19T08:43:54.944Z,97.67
2023-01-19T08:46:22.887Z,98.58
2023-01-19T08:48:50.884Z,99.12
2023-01-19T08:51:19.555Z,99.13
2023-01-19T08:53:47.723Z,96.70
2023-01-19T08:56:15.731Z,95.89
2023-01-19T08:58:45.755Z,95.91
2023-01-19T09:01:17.080Z,95.01
2023-01-19T09:03:45.081Z,95.86
2023-01-19T09:06:17.084Z,98.19
2023-01-19T09:08:45.404Z,98.69
2023-01-19T09:11:15.566Z,97.19
2023-01-19T09:13:43.855Z,96.93
2023-01-19T09:16:13.526Z,97.42
2023-01-19T09:18:41.773Z,97.50
2023-01-19T09:21:09.700Z,96.41
2023-01-19T09:23:38.051Z,97.54
2023-01-19T09:26:07.126Z,98.10
2023-01-19T09:28:35.089Z,97.98
2023-01-19T09:31:07.823Z,98.45
2023-01-19T09:33:35.986Z,98.54
2023-01-19T09:36:04.909Z,98.93
2023-01-19T09:38:33.185Z,99.34
2023-01-19T09:41:01.826Z,99.30
2023-01-19T09:43:38.975Z,100.00
2023-01-19T09:46:41.639Z,100.00
2023-01-19T09:49:39.514Z,100.00
2023-01-19T09:52:12.516Z,99.74
2023-01-19T09:54:57.507Z,98.25
2023-01-19T09:57:30.504Z,96.81
2023-01-19T09:59:59.920Z,96.18
2023-01-19T10:02:40.817Z,96.51
2023-01-19T10:05:25.601Z,96.24
2023-01-19T10:07:56.154Z,96.88
2023-01-19T10:10:27.877Z,96.92
2023-01-19T10:13:03.522Z,96.61
2023-01-19T10:16:00.074Z,96.28
2023-01-19T10:18:35.925Z,96.64
2023-01-19T10:21:22.164Z,96.75
2023-01-19T10:24:06.707Z,97.31
2023-01-19T10:26:39.533Z,97.47
2023-01-19T10:29:15.017Z,98.00
2023-01-19T10:31:46.700Z,96.35
2023-01-19T10:34:21.581Z,95.22
2023-01-19T10:36:59.398Z,95.52
2023-01-19T10:39:27.354Z,96.06
2023-01-19T10:41:55.188Z,95.64
2023-01-19T10:44:28.969Z,94.88
2023-01-19T10:46:59.324Z,95.21
2023-01-19T10:49:30.173Z,95.46
2023-01-19T10:52:00.784Z,95.35
2023-01-19T10:54:32.403Z,95.13
2023-01-19T10:57:07.579Z,95.46
2023-01-19T10:59:38.971Z,94.95
2023-01-19T11:02:30.737Z,94.79
2023-01-19T11:05:21.433Z,93.71
2023-01-19T11:07:49.278Z,92.53
2023-01-19T11:10:23.383Z,92.36
2023-01-19T11:13:12.950Z,92.98
2023-01-19T11:15:44.887Z,92.90
2023-01-19T11:18:23.651Z,91.29
2023-01-19T11:20:55.324Z,91.29
2023-01-19T11:23:33.820Z,91.56
2023-01-19T11:26:05.598Z,92.78
2023-01-19T11:28:37.589Z,92.51
2023-01-19T11:31:11.400Z,93.22
2023-01-19T11:33:53.385Z,92.93
2023-01-19T11:36:28.133Z,93.74
2023-01-19T11:39:23.974Z,93.60
2023-01-19T11:41:57.263Z,93.68
2023-01-19T11:44:33.194Z,94.45
2023-01-19T11:47:06.100Z,94.60
2023-01-19T11:49:51.304Z,94.26
2023-01-19T11:52:35.994Z,92.53
2023-01-19T11:55:17.419Z,91.71
2023-01-19T11:57:52.389Z,91.26
2023-01-19T12:00:35.782Z,91.28
2023-01-19T12:03:30.774Z,89.85
2023-01-19T12:06:04.425Z,90.77
2023-01-19T12:08:40.086Z,90.11
2023-01-19T12:11:12.705Z,91.17
2023-01-19T12:13:44.312Z,92.64
2023-01-19T12:16:21.755Z,92.45
2023-01-19T12:19:14.915Z,94.05
2023-01-19T12:21:44.615Z,93.99
2023-01-19T12:24:18.830Z,94.17
2023-01-19T12:26:57.348Z,94.25
2023-01-19T12:29:31.464Z,94.88
2023-01-19T12:32:14.555Z,93.95
2023-01-19T12:34:50.093Z,94.97
2023-01-19T12:37:43.503Z,92.31
2023-01-19T12:40:26.963Z,90.96
2023-01-19T12:43:01.867Z,90.15
2023-01-19T12:45:35.184Z,91.41
2023-01-19T12:48:05.013Z,92.39
2023-01-19T12:50:40.404Z,91.96
2023-01-19T12:53:19.205Z,91.27
2023-01-19T12:56:00.209Z,91.83
2023-01-19T12:58:28.241Z,91.78
2023-01-19T13:01:19.228Z,91.47
2023-01-19T13:04:01.777Z,90.67
2023-01-19T13:06:50.011Z,89.83
2023-01-19T13:09:32.179Z,90.61
2023-01-19T13:12:15.477Z,89.87
2023-01-19T13:14:44.115Z,90.99
2023-01-19T13:17:33.709Z,88.44
2023-01-19T13:20:23.275Z,90.22
2023-01-19T13:22:52.212Z,90.81
2023-01-19T13:25:35.829Z,91.36
2023-01-19T13:28:10.695Z,90.63
2023-01-19T13:30:51.697Z,92.15
2023-01-19T13:33:23.336Z,92.75
2023-01-19T13:35:58.998Z,92.28
2023-01-19T13:38:28.262Z,91.45
2023-01-19T13:40:59.020Z,91.92
2023-01-19T13:43:34.006Z,91.77
2023-01-19T13:46:04.315Z,92.08
2023-01-19T13:48:33.019Z,91.98
2023-01-19T13:51:07.281Z,90.59
2023-01-19T13:53:35.645Z,91.25
2023-01-19T13:56:17.474Z,88.60
2023-01-19T13:58:58.764Z,88.73
2023-01-19T14:01:29.499Z,87.20
2023-01-19T14:03:58.956Z,87.78
2023-01-19T14:06:34.974Z,86.14
2023-01-19T14:09:07.749Z,85.41
2023-01-19T14:11:35.943Z,85.53
2023-01-19T14:14:03.940Z,84.36
2023-01-19T14:16:31.968Z,86.31
2023-01-19T14:19:02.518Z,85.64
2023-01-19T14:21:41.191Z,84.92
2023-01-19T14:24:17.215Z,85.73
2023-01-19T14:26:48.545Z,83.84
2023-01-19T14:29:16.525Z,82.35
2023-01-19T14:31:53.864Z,81.74
2023-01-19T14:35:14.021Z,83.01
2023-01-19T14:37:50.624Z,83.68
2023-01-19T14:40:21.603Z,85.26
2023-01-19T14:42:52.659Z,84.80
2023-01-19T14:45:34.179Z,85.88
2023-01-19T14:48:21.253Z,87.23
2023-01-19T14:51:02.924Z,87.90
2023-01-19T14:53:51.972Z,89.01
2023-01-19T14:56:31.707Z,89.00
2023-01-19T14:59:01.838Z,89.07
2023-01-19T15:01:31.296Z,88.84
2023-01-19T15:03:59.762Z,89.58
2023-01-19T15:06:28.210Z,90.42
2023-01-19T15:08:56.274Z,90.50
2023-01-19T15:11:31.514Z,89.87
2023-01-19T15:14:00.081Z,90.46
2023-01-19T15:16:30.466Z,90.31
2023-01-19T15:18:58.413Z,90.20
2023-01-19T15:21:26.996Z,89.05
2023-01-19T15:23:55.493Z,89.25
2023-01-19T15:26:26.482Z,89.66
2023-01-19T15:28:56.337Z,87.41
2023-01-19T15:31:26.444Z,87.13
2023-01-19T15:33:54.596Z,87.46
2023-01-19T15:36:24.522Z,88.03
2023-01-19T15:38:52.408Z,88.85
2023-01-19T15:41:28.032Z,88.93
2023-01-19T15:43:56.703Z,88.86
2023-01-19T15:46:26.033Z,89.67
2023-01-19T15:48:54.597Z,89.30
2023-01-19T15:51:27.948Z,89.49
2023-01-19T15:53:56.182Z,89.94
2023-01-19T15:56:28.994Z,90.99
2023-01-19T15:58:58.431Z,91.48
2023-01-19T16:01:32.476Z,92.18
2023-01-19T16:04:02.775Z,92.06
2023-01-19T16:06:31.801Z,93.77
2023-01-19T16:09:01.766Z,94.29
2023-01-19T16:11:35.293Z,95.03
2023-01-19T16:14:03.310Z,95.41
2023-01-19T16:16:31.359Z,95.18
2023-01-19T16:18:59.327Z,95.35
2023-01-19T16:21:27.384Z,95.23
2023-01-19T16:23:55.557Z,95.44
2023-01-19T16:26:25.352Z,96.09
2023-01-19T16:28:56.638Z,95.59
2023-01-19T16:31:24.766Z,95.33
2023-01-19T16:33:52.724Z,95.21
2023-01-19T16:36:28.144Z,95.79
2023-01-19T16:39:19.850Z,96.02
2023-01-19T16:41:47.794Z,96.18
2023-01-19T16:44:17.154Z,97.02
2023-01-19T16:46:46.591Z,97.33
2023-01-19T16:49:23.508Z,98.17
2023-01-19T16:51:53.714Z,98.43
2023-01-19T16:54:23.794Z,98.35
2023-01-19T16:56:52.416Z,96.73
2023-01-19T16:59:22.360Z,96.01
2023-01-19T17:01:52.272Z,96.15
2023-01-19T17:04:21.824Z,96.26
2023-01-19T17:06:52.813Z,96.73
2023-01-19T17:09:20.865Z,98.48
2023-01-19T17:11:49.001Z,98.82
2023-01-19T17:14:20.701Z,96.71
2023-01-19T17:16:49.492Z,95.90
2023-01-19T17:19:19.479Z,96.73
2023-01-19T17:21:49.338Z,96.46
2023-01-19T17:24:18.131Z,95.10
2023-01-19T17:26:48.791Z,94.40
2023-01-19T17:29:17.167Z,94.28
2023-01-19T17:31:46.054Z,95.67
2023-01-19T17:34:14.043Z,95.41
2023-01-19T17:36:41.998Z,94.65
2023-01-19T17:39:15.146Z,93.73
2023-01-19T17:41:42.914Z,94.51
2023-01-19T17:44:10.934Z,95.97
2023-01-19T17:46:39.212Z,96.38
2023-01-19T17:49:08.355Z,96.03
2023-01-19T17:51:36.704Z,95.10
2023-01-19T17:54:05.031Z,93.46
2023-01-19T17:56:36.975Z,94.40
2023-01-19T17:59:07.962Z,94.22
2023-01-19T18:01:40.126Z,94.20
2023-01-19T18:04:09.273Z,95.47
2023-01-19T18:06:39.061Z,96.11
2023-01-19T18:09:07.635Z,95.59
2023-01-19T18:11:36.193Z,96.93
2023-01-19T18:14:05.701Z,96.74
2023-01-19T18:16:33.774Z,94.82
2023-01-19T18:19:01.924Z,90.49
2023-01-19T18:21:30.672Z,91.78
2023-01-19T18:24:05.029Z,91.63
2023-01-19T18:26:34.864Z,90.82
2023-01-19T18:29:02.798Z,90.67
2023-01-19T18:31:31.018Z,90.67
2023-01-19T18:33:59.712Z,89.20
2023-01-19T18:36:27.767Z,88.39
2023-01-19T18:38:55.913Z,87.24
2023-01-19T18:41:23.893Z,86.91
2023-01-19T18:43:53.734Z,86.24
2023-01-19T18:46:21.802Z,85.76
2023-01-19T18:48:50.103Z,84.53
2023-01-19T18:51:18.505Z,85.19
2023-01-19T18:53:46.427Z,84.93
2023-01-19T18:56:15.952Z,86.06
2023-01-19T18:58:45.043Z,87.45
2023-01-19T19:01:21.245Z,88.26
2023-01-19T19:03:50.094Z,88.43
2023-01-19T19:06:21.140Z,89.54
2023-01-19T19:08:54.376Z,90.33
2023-01-19T19:11:24.680Z,90.03
2023-01-19T19:14:01.395Z,89.51
2023-01-19T19:16:32.197Z,90.84
2023-01-19T19:19:02.121Z,91.73
2023-01-19T19:21:30.072Z,90.86
2023-01-19T19:23:58.846Z,90.91
2023-01-19T19:26:28.571Z,91.86
2023-01-19T19:29:12.355Z,91.61
2023-01-19T19:31:40.954Z,91.02
2023-01-19T19:34:12.571Z,91.70
2023-01-19T19:36:40.856Z,90.67
2023-01-19T19:39:08.881Z,90.49
2023-01-19T19:41:39.191Z,90.29
2023-01-19T19:44:07.153Z,90.05
2023-01-19T19:46:35.247Z,89.87
2023-01-19T19:49:05.303Z,89.89
2023-01-19T19:51:34.292Z,90.78
2023-01-19T19:54:02.525Z,91.56
2023-01-19T19:56:34.236Z,91.75
2023-01-19T19:59:02.218Z,91.92
2023-01-19T20:01:33.483Z,92.63
2023-01-19T20:04:09.977Z,92.45
2023-01-19T20:06:44.946Z,93.06
2023-01-19T20:09:14.379Z,93.66
2023-01-19T20:11:44.480Z,93.61
2023-01-19T20:14:13.827Z,94.25
2023-01-19T20:16:42.959Z,94.50
2023-01-19T20:19:11.255Z,95.06
2023-01-19T20:21:44.435Z,94.88
2023-01-19T20:24:16.380Z,95.07
2023-01-19T20:26:47.206Z,95.67
2023-01-19T20:29:15.517Z,95.65
2023-01-19T20:31:48.004Z,96.01
2023-01-19T20:34:17.985Z,96.59
2023-01-19T20:36:49.853Z,96.38
2023-01-19T20:39:19.056Z,96.28
2023-01-19T20:41:49.509Z,96.69
2023-01-19T20:44:22.438Z,95.97
2023-01-19T20:46:51.735Z,96.60
2023-01-19T20:49:19.806Z,96.91
2023-01-19T20:51:48.486Z,96.84
2023-01-19T20:54:18.804Z,96.72
2023-01-19T20:56:46.696Z,97.27
2023-01-19T20:59:14.884Z,97.30
2023-01-19T21:01:43.325Z,97.47
2023-01-19T21:04:12.096Z,97.52
2023-01-19T21:06:40.683Z,97.63
2023-01-19T21:09:10.091Z,98.09
2023-01-19T21:11:39.660Z,97.96
2023-01-19T21:14:08.839Z,97.45
2023-01-19T21:16:37.511Z,96.66
2023-01-19T21:19:05.703Z,96.88
2023-01-19T21:21:33.789Z,97.01
2023-01-19T21:24:03.104Z,97.02
2023-01-19T21:26:31.542Z,96.58
2023-01-19T21:29:01.655Z,96.49
2023-01-19T21:31:30.083Z,97.30
2023-01-19T21:33:58.462Z,97.78
2023-01-19T21:36:26.573Z,97.51
2023-01-19T21:39:00.645Z,97.69
2023-01-19T21:41:30.595Z,97.43
2023-01-19T21:44:00.698Z,96.99
2023-01-19T21:46:29.788Z,97.22
2023-01-19T21:49:05.756Z,96.57
2023-01-19T21:51:36.384Z,96.68
2023-01-19T21:54:06.606Z,96.28
2023-01-19T21:56:35.973Z,95.90
2023-01-19T21:59:04.483Z,95.49
2023-01-19T22:01:34.244Z,95.22
2023-01-19T22:04:02.353Z,94.96
2023-01-19T22:06:30.369Z,95.13
2023-01-19T22:08:58.650Z,95.64
2023-01-19T22:11:27.990Z,95.69
2023-01-19T22:13:56.208Z,94.68
2023-01-19T22:16:25.306Z,94.40
2023-01-19T22:19:02.251Z,94.70
2023-01-19T22:21:33.327Z,94.50
2023-01-19T22:24:02.673Z,94.53
2023-01-19T22:26:32.481Z,93.35
2023-01-19T22:29:01.929Z,93.32
2023-01-19T22:31:30.842Z,94.04
2023-01-19T22:33:58.961Z,94.27
2023-01-19T22:36:34.141Z,95.21
2023-01-19T22:39:05.543Z,95.81
2023-01-19T22:41:42.860Z,96.34
2023-01-19T22:44:21.189Z,96.54
2023-01-19T22:46:50.821Z,95.75
2023-01-19T22:49:18.837Z,95.78
2023-01-19T22:51:47.244Z,94.91
2023-01-19T22:54:15.273Z,94.93
2023-01-19T22:56:43.366Z,93.98
2023-01-19T22:59:11.467Z,94.68
2023-01-19T23:01:42.190Z,93.99
2023-01-19T23:04:15.856Z,95.03
2023-01-19T23:06:46.866Z,95.52
2023-01-19T23:09:15.327Z,96.02
2023-01-19T23:11:45.448Z,96.63
2023-01-19T23:14:16.996Z,97.39
2023-01-19T23:16:47.450Z,97.10
2023-01-19T23:19:17.521Z,97.36
2023-01-19T23:21:45.995Z,96.19
2023-01-19T23:24:13.875Z,96.09
2023-01-19T23:26:41.862Z,95.19
2023-01-19T23:29:15.193Z,96.36
2023-01-19T23:31:46.022Z,95.20
2023-01-19T23:34:14.898Z,95.46
2023-01-19T23:36:44.115Z,94.66
2023-01-19T23:39:18.311Z,95.17
2023-01-19T23:41:46.712Z,94.71
2023-01-19T23:44:14.940Z,94.30
2023-01-19T23:46:44.180Z,94.73
2023-01-19T23:49:13.132Z,95.21
2023-01-19T23:51:41.973Z,94.17
2023-01-19T23:54:10.366Z,93.75
2023-01-19T23:56:39.206Z,93.05
2023-01-19T23:59:13.013Z,92.93
